Tiempo atmosférico en la estación meteorológica de Pedrosillo de Los Aires, Salamanca (865 m.)



Fecha
DESCASC
Temp. máxima en grados centígrados (hora)
DESCASC
Temp. mínima en grados centígrados (hora)
DESCASC
Temp. media en grados centígrados
DESCASC
Racha de viento máxima en m/sg (hora)
DESCASC
Velocidad máxima media en intervalos de 10 minutos(hora)
DESCASC
Precipitaciones diarias en mm
DESCASC
Precipitaciones de 00:00 a 06:00 en mm
DESCASC
Precipitaciones de 06:00 a 12:00 en mm
DESCASC
Precipitaciones de 12:00 a 18:00 en mm
DESCASC
Precipitaciones de 18:00 a 24:00 en mm
DESCASC
31-05-2020 26.1 (16:10) 11.5 (06:00) 18.8 11.11 (19:00) 7.5 (18:20) 6 0 0 2.6 3.4
30-05-2020 29.3 (15:30) 10.4 (06:50) 19.8 11.39 (18:20) 7.22 (18:20) 0 0 0 0 0
28-05-2020 29.2 (18:40) 8.6 (00:00) 18.9 8.61 (14:40) 5 (17:10) 0 0 0 0 0
27-05-2020 28.6 (17:50) 9.2 (06:10) 18.9 8.61 (19:20) 5 (19:20) 0 0 0 0 0
26-05-2020 27.8 (15:30) 10.8 (00:00) 19.3 11.39 (19:20) 7.22 (15:40) 0 0 0 0 0
25-05-2020 28.1 (17:20) 9.6 (00:00) 18.9 11.39 (23:10) 6.39 (23:10) 0 0 0 0 0
24-05-2020 28.4 (18:10) 8.8 (07:00) 18.6 10 (04:10) 5.83 (03:50) 0 0 0 0 0
23-05-2020 27.9 (17:30) 9.7 (00:00) 18.8 11.67 (22:10) 7.5 (22:20) 0 0 0 0 0
22-05-2020 27.6 (16:00) 7.7 (00:00) 17.7 10.28 (16:40) 6.39 (16:50) 0 0 0 0 0
21-05-2020 27.3 (16:00) 8 (00:00) 17.6 8.89 (16:40) 6.39 (19:40) 0 0 0 0 0
20-05-2020 28.1 (19:30) 5 (00:00) 16.6 6.67 (14:30) 3.61 (13:10) 0 0 0 0 0
19-05-2020 25 (18:50) 4.2 (06:50) 14.6 8.33 (14:40) 5.83 (14:50) 0 0 0 0 0
18-05-2020 23.6 (18:30) 2.2 (00:00) 12.9 6.67 (14:40) 4.17 (14:40) 0 0 0 0 0
17-05-2020 19.2 (18:40) 2.4 (00:00) 10.8 10 (13:40) 5.83 (13:20) 0 0 0 0 0
16-05-2020 18.6 (17:10) 6.3 (00:00) 12.5 11.39 (18:10) 6.67 (02:20) 0 0 0 0 0
15-05-2020 15.6 (17:00) 7.4 (06:30) 11.5 -- (--) -- (--) 0.5 0 0 0.3 0.2
14-05-2020 15.8 (17:20) 6.9 (00:00) 11.4 11.39 (05:00) 6.39 (05:00) 1.8 1.2 0.4 0 0.2
13-05-2020 16.6 (17:10) 8.6 (00:00) 12.6 10 (16:20) 6.39 (13:20) 0.4 0 0 0.4 0
12-05-2020 -- (--) -- (--) -- -- (--) -- (--) -- 0 0 -- 3.2
11-05-2020 16.1 (17:00) 8 (00:00) 12.1 13.06 (18:00) 8.89 (18:10) 1.2 0 0.8 0.2 0.2
10-05-2020 15.7 (16:10) 6.3 (00:00) 11 10.56 (18:10) 7.22 (17:20) 0.4 0 0 0 0.4
09-05-2020 17.9 (17:00) 9.7 (23:50) 13.8 13.89 (13:10) 8.89 (19:10) 0.6 0 0 0 0.6
08-05-2020 22.7 (15:40) 11.9 (00:00) 17.3 11.39 (19:50) 7.22 (19:50) 0 0 0 0 0
07-05-2020 25.6 (15:40) 7.3 (00:00) 16.5 10.28 (16:50) 6.67 (16:50) 0 0 0 0 0
06-05-2020 22.3 (18:50) 4.8 (00:00) 13.5 6.11 (12:30) 3.61 (12:50) 0 0 0 0 0
05-05-2020 19.3 (17:20) 7.5 (00:00) 13.4 10 (16:00) 6.39 (00:30) 0 0 0 0 0
04-05-2020 24.6 (13:40) 9.4 (00:00) 17 21.11 (17:10) 12.22 (17:10) 0 0 0 0 0
03-05-2020 25.6 (18:10) 4.9 (07:30) 15.3 9.17 (13:10) 5 (13:10) 0 0 0 0 0

Gráficas

Temp. máximas Temp. mínimas Temp. medias Precipitaciones Rachas de viento máximas Velocidades máximas media en intervalos de 10 minutos

Datos horarios

Fecha y hora oficial Temperatura (ºC) Velocidad del viento (km/h) Dirección del viento Racha (km/h) Dirección de racha Precipitación (mm) Presión (hPa) Tendencia (hPa) Humedad (%)
2020-06-01 23:00:00 16.7 6 Sudoeste 15 Sudoeste 0 -- -- 69
2020-06-01 22:00:00 18.8 11 Sudoeste 23 Sudoeste 0 -- -- 62
2020-06-01 21:00:00 21.8 10 Sudoeste 22 Oeste 0 -- -- 51
2020-06-01 20:00:00 23.5 14 Sudoeste 27 Oeste 0 -- -- 46
2020-06-01 19:00:00 23.8 14 Sudoeste 25 Sudoeste 0 -- -- 46
2020-06-01 18:00:00 24 7 Oeste 24 Sudoeste 0 -- -- 49
2020-06-01 17:00:00 22.8 14 Sudoeste 26 Oeste 0 -- -- 55
2020-06-01 16:00:00 23.1 15 Sudoeste 23 Sudoeste 0 -- -- 54
2020-06-01 15:00:00 25 9 Sur 16 Sur 0 -- -- 46
2020-06-01 14:00:00 24.3 5 Norte 15 Norte 0 -- -- 47
2020-06-01 13:00:00 23.4 6 Este 15 Este 0 -- -- 53
2020-06-01 12:00:00 22.1 6 Nordeste 10 Este 0 -- -- 55
2020-06-01 11:00:00 19.8 6 Norte 13 Este 0 -- -- 63
2020-06-01 10:00:00 17.7 10 Nordeste 13 Nordeste 0 -- -- 70
2020-06-01 09:00:00 15.2 4 Este 8 Este 0 -- -- 80
2020-06-01 08:00:00 11.4 3 Nordeste 7 Norte 0 -- -- 92
2020-06-01 07:00:00 10.9 0 Calma 13 Sudoeste 0 -- -- 90
2020-06-01 06:00:00 11.1 8 Sudoeste 12 Sudoeste 0 -- -- 89
2020-06-01 05:00:00 11.5 8 Sudoeste 16 Sur 0 -- -- 88
2020-06-01 04:00:00 11.5 9 Oeste 13 Oeste 0 -- -- 90
2020-06-01 03:00:00 12 3 Sudeste 9 Sudeste 0 -- -- 90
2020-06-01 02:00:00 12.6 5 Sur 10 Este 0 -- -- 89
2020-06-01 01:00:00 12.9 8 Nordeste 15 Nordeste 0 -- -- 91
2020-06-01 00:00:00 13.3 6 Nordeste 16 Nordeste 0.2 -- -- 90
2020-05-31 23:00:00 13.5 6 Nordeste 14 Sur 0 -- -- 90
2020-05-31 22:00:00 14.2 4 Sur 23 Oeste 0 -- -- 84
2020-05-31 21:00:00 14.5 13 Oeste 22 Oeste 0 -- -- 85
2020-05-31 20:00:00 14.6 13 Noroeste 22 Oeste 1.8 -- -- 87
2020-05-31 19:00:00 14.8 20 Noroeste 40 Oeste 1.4 -- -- 82
2020-05-31 18:00:00 14.9 23 Norte 39 Norte 2.6 -- -- 81
2020-05-31 17:00:00 24.7 17 Nordeste 27 Nordeste 0 -- -- 46
2020-05-31 16:00:00 25.4 12 Sudeste 18 Sudeste 0 -- -- 46
2020-05-31 15:00:00 23.5 10 Este 27 Sudeste 0 -- -- 50
2020-05-31 14:00:00 22.6 12 Este 18 Este 0 -- -- 51
2020-05-31 13:00:00 25.3 10 Nordeste 17 Nordeste 0 -- -- 46
2020-05-31 12:00:00 23.7 9 Este 15 Este 0 -- -- 50
2020-05-31 11:00:00 23.5 8 Nordeste 16 Nordeste 0 -- -- 51
2020-05-31 10:00:00 21.6 12 Nordeste 18 Norte 0 -- -- 55
2020-05-31 09:00:00 19.2 6 Oeste 13 Sudoeste 0 -- -- 57
2020-05-31 08:00:00 14.8 9 Sudoeste 24 Oeste 0 -- -- 76
2020-05-31 07:00:00 12 10 Oeste 12 Oeste 0 -- -- 88
2020-05-31 06:00:00 11.5 8 Oeste 10 Sudoeste 0 -- -- 92
2020-05-31 05:00:00 12.1 4 Oeste 7 Oeste 0 -- -- 90
2020-05-31 04:00:00 12.9 5 Oeste 9 Oeste 0 -- -- 88
2020-05-31 03:00:00 13.6 6 Oeste 13 Oeste 0 -- -- 83
2020-05-31 02:00:00 14.7 4 Sudeste 9 Oeste 0 -- -- 83
2020-05-31 01:00:00 15.3 5 Oeste 10 Sudoeste 0 -- -- 80
2020-05-31 00:00:00 16.3 5 Sudoeste 18 Nordeste 0 -- -- 81
2020-05-30 23:00:00 17.4 10 Nordeste 18 Este 0 -- -- 75
2020-05-30 22:00:00 18.7 8 Oeste 12 Oeste 0 -- -- 64
2020-05-30 21:00:00 20.6 4 Sur 8 Sudeste 0 -- -- 58
2020-05-30 20:00:00 21.6 5 Noroeste 24 Este 0 -- -- 54
2020-05-30 19:00:00 22 16 Este 41 Este 0 -- -- 50
2020-05-30 18:00:00 24.5 22 Sudeste 37 Sudeste 0 -- -- 44
2020-05-30 17:00:00 28 24 Sudoeste 40 Sudoeste 0 -- -- 38
2020-05-30 16:00:00 28.4 17 Sudoeste 35 Oeste 0 -- -- 37
2020-05-30 15:00:00 28.1 19 Oeste 33 Sudoeste 0 -- -- 41
2020-05-30 14:00:00 29.1 18 Sudoeste 32 Sudoeste 0 -- -- 34
2020-05-30 13:00:00 28.7 9 Sudoeste 22 Oeste 0 -- -- 32
2020-05-30 12:00:00 27.3 4 Oeste 10 Oeste 0 -- -- 43
2020-05-30 11:00:00 24.2 4 Este 8 Este 0 -- -- 58
2020-05-30 10:00:00 19.9 2 Oeste 5 Sudoeste 0 -- -- 70
2020-05-30 09:00:00 15.2 3 Oeste 5 Oeste 0 -- -- 84
2020-05-30 08:00:00 11.6 2 Noroeste 10 Oeste 0 -- -- 95
2020-05-30 07:00:00 10.9 7 Oeste 9 Oeste 0 -- -- 95
2020-05-30 06:00:00 11.4 6 Oeste 9 Sudoeste 0 -- -- 92
2020-05-30 05:00:00 12.4 9 Sudoeste 11 Sudoeste 0 -- -- 91
2020-05-30 04:00:00 13.2 8 Sudoeste 10 Oeste 0 -- -- 89
2020-05-30 03:00:00 14.1 5 Oeste 13 Oeste 0 -- -- 86
2020-05-30 02:00:00 15.5 8 Oeste 11 Oeste 0 -- -- 83
2020-05-30 01:00:00 16.5 8 Sudoeste 13 Sudoeste 0 -- -- 79
2020-05-30 00:00:00 17.3 8 Sur 13 Sudoeste 0 -- -- 76
2020-05-29 23:00:00 17.6 8 Sudoeste 14 Sudoeste 0 -- -- 71
2020-05-29 22:00:00 19.5 6 Sur 16 Oeste 0 -- -- 59
2020-05-29 21:00:00 21.4 11 Oeste 25 Sudoeste 0 -- -- 48
2020-05-29 20:00:00 23.9 13 Oeste 21 Oeste 0 -- -- 41
2020-05-29 19:00:00 28.6 0 Calma 12 Norte 0 -- -- 31
2020-05-29 18:00:00 29.2 8 Norte 17 Este 0 -- -- 30
2020-05-29 17:00:00 29.8 5 Noroeste 24 Norte 0 -- -- 26
2020-05-29 16:00:00 29.7 8 Norte 23 Norte 0 -- -- 26
2020-05-29 15:00:00 28.5 9 Nordeste 51 Norte 0 -- -- 30
2020-05-29 14:00:00 28.5 9 Nordeste 25 Nordeste 0 -- -- 32
2020-05-29 13:00:00 27.7 9 Este 17 Este 0 -- -- 31
2020-05-29 12:00:00 26.4 4 Este 14 Sur 0 -- -- 40
2020-05-29 11:00:00 24.2 4 Sur 12 Oeste 0 -- -- 47
2020-05-29 10:00:00 21 7 Sudoeste 11 Sudoeste 0 -- -- 56
2020-05-29 09:00:00 15.5 4 Oeste 9 Oeste 0 -- -- 75
2020-05-29 08:00:00 10.8 6 Oeste 8 Oeste 0 -- -- 89
2020-05-29 07:00:00 9.7 6 Oeste 11 Noroeste 0 -- -- 91
2020-05-29 06:00:00 9.5 5 Noroeste 9 Noroeste 0 -- -- 90
2020-05-29 05:00:00 10.2 4 Noroeste 7 Oeste 0 -- -- 88
2020-05-29 04:00:00 10.9 6 Sudoeste 10 Sudoeste 0 -- -- 88
2020-05-29 03:00:00 13 8 Sudoeste 10 Oeste 0 -- -- 84
2020-05-29 02:00:00 13.6 6 Oeste 9 Sudoeste 0 -- -- 81
2020-05-29 01:00:00 16.1 4 Oeste 8 Sur 0 -- -- 71
2020-05-29 00:00:00 18.7 6 Sudoeste 14 Sudoeste 0 -- -- 62
2020-05-28 23:00:00 20.7 7 Sudoeste 17 Sudoeste 0 -- -- 58
2020-05-28 22:00:00 22.5 9 Sudoeste 23 Sudoeste 0 -- -- 54
2020-05-28 21:00:00 25.3 10 Nordeste 16 Nordeste 0 -- -- 40
2020-05-28 20:00:00 26.1 11 Norte 19 Nordeste 0 -- -- 35
2020-05-28 19:00:00 27.7 10 Nordeste 23 Norte 0 -- -- 32
2020-05-28 18:00:00 28.8 13 Nordeste 27 Nordeste 0 -- -- 29
2020-05-28 17:00:00 28.3 16 Nordeste 30 Nordeste 0 -- -- 31
2020-05-28 16:00:00 28 16 Nordeste 31 Nordeste 0 -- -- 32
2020-05-28 15:00:00 28.1 10 Nordeste 31 Norte 0 -- -- 34
2020-05-28 14:00:00 26.6 15 Nordeste 26 Este 0 -- -- 34
2020-05-28 13:00:00 26.9 16 Nordeste 27 Nordeste 0 -- -- 36
2020-05-28 12:00:00 25.3 9 Nordeste 15 Nordeste 0 -- -- 38
2020-05-28 11:00:00 23.3 4 Norte 13 Nordeste 0 -- -- 41
2020-05-28 10:00:00 19.7 3 Nordeste 6 Norte 0 -- -- 43
2020-05-28 09:00:00 14.1 3 Oeste 10 Noroeste 0 -- -- 72
2020-05-28 08:00:00 9.8 5 Oeste 8 Oeste 0 -- -- 85
2020-05-28 07:00:00 8.7 4 Noroeste 8 Noroeste 0 -- -- 89
2020-05-28 06:00:00 9.4 4 Oeste 8 Norte 0 -- -- 90
2020-05-28 05:00:00 9.8 4 Oeste 12 Oeste 0 -- -- 89
2020-05-28 04:00:00 10.3 6 Oeste 12 Oeste 0 -- -- 89
2020-05-28 03:00:00 11 7 Oeste 13 Oeste 0 -- -- 87
2020-05-28 02:00:00 12.2 8 Oeste 12 Oeste 0 -- -- 82
2020-05-28 01:00:00 13.6 4 Norte 10 Noroeste 0 -- -- 77
2020-05-28 00:00:00 15.9 3 Noroeste 8 Oeste 0 -- -- 69
2020-05-27 23:00:00 18.7 6 Oeste 15 Sudeste 0 -- -- 59
2020-05-27 22:00:00 21.4 10 Sudeste 24 Este 0 -- -- 50
2020-05-27 21:00:00 25 14 Este 26 Sudeste 0 -- -- 39
2020-05-27 20:00:00 27.1 14 Este 31 Este 0 -- -- 35
2020-05-27 19:00:00 27.7 16 Este 29 Este 0 -- -- 33
2020-05-27 18:00:00 28.6 13 Este 28 Este 0 -- -- 34
2020-05-27 17:00:00 28.5 13 Nordeste 30 Este 0 -- -- 33
2020-05-27 16:00:00 28.3 14 Este 28 Este 0 -- -- 32
2020-05-27 15:00:00 27.9 16 Este 27 Este 0 -- -- 35
2020-05-27 14:00:00 27.2 10 Este 24 Este 0 -- -- 39
2020-05-27 13:00:00 26.1 11 Nordeste 27 Este 0 -- -- 40
2020-05-27 12:00:00 24.5 11 Nordeste 26 Nordeste 0 -- -- 49
2020-05-27 11:00:00 22.3 10 Nordeste 16 Nordeste 0 -- -- 59
2020-05-27 10:00:00 19.2 8 Nordeste 10 Norte 0 -- -- 69
2020-05-27 09:00:00 15 2 Este 6 Norte 0 -- -- 89
2020-05-27 08:00:00 10.1 0 Calma 5 Oeste 0 -- -- 96
2020-05-27 07:00:00 9.5 3 Norte 8 Norte 0 -- -- 96
2020-05-27 06:00:00 9.4 4 Noroeste 9 Oeste 0 -- -- 95
2020-05-27 05:00:00 10.1 0 Calma 8 Noroeste 0 -- -- 95
2020-05-27 04:00:00 10.2 4 Noroeste 6 Norte 0 -- -- 93
2020-05-27 03:00:00 10.8 6 Oeste 9 Oeste 0 -- -- 94
2020-05-27 02:00:00 11.5 2 Norte 10 Oeste 0 -- -- 92
2020-05-27 01:00:00 12.5 5 Oeste 8 Noroeste 0 -- -- 90
2020-05-27 00:00:00 13.6 6 Oeste 9 Sudoeste 0 -- -- 89
2020-05-26 23:00:00 15.5 0 Calma 8 Sudoeste 0 -- -- 84
2020-05-26 22:00:00 17.2 0 Calma 12 Sudeste 0 -- -- 78
2020-05-26 21:00:00 20 0 Calma 12 Sudeste 0 -- -- 67
2020-05-26 20:00:00 19 12 Sudeste 41 Este 0 -- -- 71
2020-05-26 19:00:00 24.9 8 Sudoeste 26 Sudoeste 0 -- -- 53
2020-05-26 18:00:00 23 9 Sur 28 Sudoeste 0 -- -- 57
2020-05-26 17:00:00 23.5 14 Sudoeste 31 Sur 0 -- -- 52
2020-05-26 16:00:00 21.7 17 Sudeste 37 Nordeste 0 -- -- 59
2020-05-26 15:00:00 26.5 18 Nordeste 29 Nordeste 0 -- -- 45
2020-05-26 14:00:00 25.7 12 Nordeste 26 Norte 0 -- -- 50
2020-05-26 13:00:00 23.9 10 Nordeste 23 Nordeste 0 -- -- 56
2020-05-26 12:00:00 21.3 12 Nordeste 19 Este 0 -- -- 62
2020-05-26 11:00:00 18.4 10 Nordeste 17 Nordeste 0 -- -- 71
2020-05-26 10:00:00 15.1 12 Nordeste 22 Nordeste 0 -- -- 79
2020-05-26 09:00:00 13.1 16 Nordeste 23 Nordeste 0 -- -- 83
2020-05-26 08:00:00 11.6 13 Nordeste 23 Nordeste 0 -- -- 87
2020-05-26 07:00:00 11.2 14 Nordeste 21 Nordeste 0 -- -- 88
2020-05-26 06:00:00 11 6 Nordeste 21 Nordeste 0 -- -- 90
2020-05-26 05:00:00 11.9 11 Nordeste 18 Nordeste 0 -- -- 90
2020-05-26 04:00:00 12.8 12 Nordeste 35 Nordeste 0 -- -- 88
2020-05-26 03:00:00 14 21 Nordeste 28 Nordeste 0 -- -- 87
2020-05-26 02:00:00 15.2 17 Nordeste 30 Nordeste 0 -- -- 83
2020-05-26 01:00:00 16.2 21 Nordeste 28 Nordeste 0 -- -- 77
2020-05-26 00:00:00 17.8 18 Nordeste 41 Nordeste 0 -- -- 67
2020-05-25 23:00:00 19.7 22 Nordeste 34 Nordeste 0 -- -- 58
2020-05-25 22:00:00 21.8 17 Nordeste 27 Nordeste 0 -- -- 49
2020-05-25 21:00:00 24.6 17 Nordeste 26 Norte 0 -- -- 43
2020-05-25 20:00:00 26.4 15 Nordeste 27 Nordeste 0 -- -- 38
2020-05-25 19:00:00 27.5 13 Nordeste 28 Nordeste 0 -- -- 35
2020-05-25 18:00:00 27.6 11 Nordeste 23 Norte 0 -- -- 36
2020-05-25 17:00:00 27.7 15 Nordeste 29 Nordeste 0 -- -- 36
2020-05-25 16:00:00 27.3 12 Nordeste 24 Nordeste 0 -- -- 35
2020-05-25 15:00:00 26.6 16 Nordeste 33 Norte 0 -- -- 38
2020-05-25 14:00:00 25.9 19 Nordeste 27 Nordeste 0 -- -- 39
2020-05-25 13:00:00 24.5 17 Nordeste 26 Nordeste 0 -- -- 44
2020-05-25 12:00:00 22.4 13 Nordeste 21 Nordeste 0 -- -- 57
2020-05-25 11:00:00 19.9 10 Nordeste 18 Nordeste 0 -- -- 68
2020-05-25 10:00:00 17 10 Nordeste 17 Nordeste 0 -- -- 76
2020-05-25 09:00:00 14.1 10 Nordeste 14 Nordeste 0 -- -- 86
2020-05-25 08:00:00 11.7 2 Nordeste 5 Nordeste 0 -- -- 96
2020-05-25 07:00:00 9.6 3 Norte 6 Oeste 0 -- -- 95
2020-05-25 06:00:00 10.2 4 Oeste 7 Norte 0 -- -- 94
2020-05-25 05:00:00 10.7 8 Oeste 10 Oeste 0 -- -- 94
2020-05-25 04:00:00 11.7 5 Sudoeste 8 Oeste 0 -- -- 91
2020-05-25 03:00:00 12.4 5 Oeste 10 Oeste 0 -- -- 91
2020-05-25 02:00:00 13.5 6 Oeste 10 Oeste 0 -- -- 88
2020-05-25 01:00:00 15.7 7 Oeste 9 Oeste 0 -- -- 83
2020-05-25 00:00:00 18 3 Noroeste 9 Oeste 0 -- -- 74
2020-05-24 23:00:00 19.6 4 Oeste 8 Noroeste 0 -- -- 70
2020-05-24 22:00:00 22.3 6 Noroeste 13 Noroeste 0 -- -- 59
2020-05-24 21:00:00 25.1 8 Noroeste 13 Noroeste 0 -- -- 50
2020-05-24 20:00:00 26.5 8 Oeste 19 Oeste 0 -- -- 47
2020-05-24 19:00:00 27.4 11 Oeste 23 Sudoeste 0 -- -- 45
2020-05-24 18:00:00 28.3 11 Sudoeste 23 Sudoeste 0 -- -- 38
2020-05-24 17:00:00 27.9 12 Sudoeste 30 Sudoeste 0 -- -- 42
2020-05-24 16:00:00 27.2 10 Noroeste 29 Oeste 0 -- -- 48
2020-05-24 15:00:00 25.7 8 Norte 14 Nordeste 0 -- -- 50
2020-05-24 14:00:00 23.1 8 Norte 22 Nordeste 0 -- -- 55
2020-05-24 13:00:00 21.4 14 Nordeste 24 Nordeste 0 -- -- 59
2020-05-24 12:00:00 19.1 14 Nordeste 22 Nordeste 0 -- -- 63
2020-05-24 11:00:00 16 14 Nordeste 21 Nordeste 0 -- -- 72
2020-05-24 10:00:00 13.9 13 Nordeste 20 Norte 0 -- -- 76
2020-05-24 09:00:00 11.8 12 Nordeste 17 Nordeste 0 -- -- 83
2020-05-24 08:00:00 9.7 12 Nordeste 19 Nordeste 0 -- -- 91
2020-05-24 07:00:00 8.8 10 Nordeste 16 Nordeste 0 -- -- 93
2020-05-24 06:00:00 9.5 12 Nordeste 23 Nordeste 0 -- -- 91
2020-05-24 05:00:00 10.5 17 Nordeste 36 Norte 0 -- -- 88
2020-05-24 04:00:00 11.9 19 Nordeste 29 Nordeste 0 -- -- 83
2020-05-24 03:00:00 13 13 Nordeste 28 Nordeste 0 -- -- 83
2020-05-24 02:00:00 14.2 16 Nordeste 27 Nordeste 0 -- -- 79
2020-05-24 01:00:00 15.4 18 Nordeste 26 Norte 0 -- -- 78
2020-05-24 00:00:00 16.7 19 Nordeste 32 Nordeste 0 -- -- 74
2020-05-23 23:00:00 18.1 25 Nordeste 42 Nordeste 0 -- -- 70
2020-05-23 22:00:00 19.9 23 Nordeste 36 Nordeste 0 -- -- 66
2020-05-23 21:00:00 23 9 Noroeste 18 Noroeste 0 -- -- 57
2020-05-23 20:00:00 25.6 9 Noroeste 14 Noroeste 0 -- -- 48
2020-05-23 19:00:00 27.2 6 Norte 18 Noroeste 0 -- -- 45
2020-05-23 18:00:00 27.6 12 Noroeste 22 Noroeste 0 -- -- 42
2020-05-23 17:00:00 27.4 6 Nordeste 20 Noroeste 0 -- -- 46
2020-05-23 16:00:00 26.8 4 Norte 18 Norte 0 -- -- 46
2020-05-23 15:00:00 25.8 8 Nordeste 22 Norte 0 -- -- 48
2020-05-23 14:00:00 25.4 10 Norte 23 Norte 0 -- -- 53
2020-05-23 13:00:00 24.3 12 Norte 21 Norte 0 -- -- 58
2020-05-23 12:00:00 23.6 9 Norte 20 Norte 0 -- -- 57
2020-05-23 11:00:00 21.6 4 Nordeste 10 Nordeste 0 -- -- 65
2020-05-23 10:00:00 19.1 5 Nordeste 9 Nordeste 0 -- -- 78
2020-05-23 09:00:00 13.6 4 Sur 11 Noroeste 0 -- -- 90
2020-05-23 08:00:00 10.4 5 Sudoeste 10 Oeste 0 -- -- 95
2020-05-23 07:00:00 9.7 4 Sudoeste 9 Oeste 0 -- -- 94
2020-05-23 06:00:00 10.8 5 Sudoeste 12 Noroeste 0 -- -- 92
2020-05-23 05:00:00 12.2 3 Oeste 8 Sudeste 0 -- -- 91
2020-05-23 04:00:00 13.2 6 Sudeste 10 Sudeste 0 -- -- 87
2020-05-23 03:00:00 13.3 5 Sudeste 9 Sudeste 0 -- -- 84
2020-05-23 02:00:00 12.5 2 Sudeste 12 Oeste 0 -- -- 79
2020-05-23 01:00:00 12.7 7 Sudoeste 13 Sudoeste 0 -- -- 76
2020-05-23 00:00:00 14.5 5 Oeste 7 Sudoeste 0 -- -- 69
2020-05-22 23:00:00 17.6 5 Sudoeste 8 Sudoeste 0 -- -- 56
2020-05-22 22:00:00 20.5 3 Sudoeste 16 Sudoeste 0 -- -- 48
2020-05-22 21:00:00 23.8 12 Sudoeste 25 Oeste 0 -- -- 40
2020-05-22 20:00:00 25.9 15 Sudoeste 26 Sudoeste 0 -- -- 32
2020-05-22 19:00:00 26.9 17 Sudoeste 28 Sudoeste 0 -- -- 30
2020-05-22 18:00:00 27.3 21 Sudoeste 34 Sudoeste 0 -- -- 28
2020-05-22 17:00:00 27.4 22 Sudoeste 37 Oeste 0 -- -- 27
2020-05-22 16:00:00 27.6 19 Sudoeste 34 Sudoeste 0 -- -- 28
2020-05-22 15:00:00 27.2 16 Sudoeste 28 Sudoeste 0 -- -- 28
2020-05-22 14:00:00 26.4 14 Sudoeste 24 Oeste 0 -- -- 32
2020-05-22 13:00:00 25.3 9 Sudoeste 18 Sudoeste 0 -- -- 40
2020-05-22 12:00:00 23.6 5 Este 13 Nordeste 0 -- -- 59
2020-05-22 11:00:00 21.5 4 Nordeste 9 Norte 0 -- -- 70
2020-05-22 10:00:00 17.8 3 Norte 6 Norte 0 -- -- 79
2020-05-22 09:00:00 12.1 2 Oeste 6 Oeste 0 -- -- 89
2020-05-22 08:00:00 8.5 6 Oeste 8 Oeste 0 -- -- 94
2020-05-22 07:00:00 7.9 6 Sudoeste 8 Oeste 0 -- -- 94
2020-05-22 06:00:00 8.3 5 Oeste 10 Sudoeste 0 -- -- 94
2020-05-22 05:00:00 8.8 6 Oeste 8 Oeste 0 -- -- 91
2020-05-22 04:00:00 10 0 Calma 13 Sudoeste 0 -- -- 89
2020-05-22 03:00:00 10.7 8 Oeste 9 Oeste 0 -- -- 89
2020-05-22 02:00:00 11.7 5 Oeste 8 Oeste 0 -- -- 85
2020-05-22 01:00:00 12.7 3 Oeste 11 Sudoeste 0 -- -- 81
2020-05-22 00:00:00 15.3 0 Calma 5 Sur 0 -- -- 71
2020-05-21 23:00:00 17.1 4 Sur 10 Oeste 0 -- -- 64
2020-05-21 22:00:00 19.4 7 Oeste 15 Sudoeste 0 -- -- 57
2020-05-21 21:00:00 22.9 12 Sudoeste 28 Sudoeste 0 -- -- 47
2020-05-21 20:00:00 24.8 21 Sudoeste 32 Sudoeste 0 -- -- 39
2020-05-21 19:00:00 25.9 20 Sudoeste 31 Oeste 0 -- -- 41
2020-05-21 18:00:00 26.5 20 Oeste 31 Oeste 0 -- -- 40
2020-05-21 17:00:00 26.9 18 Sudoeste 32 Sudoeste 0 -- -- 41
2020-05-21 16:00:00 27.3 13 Sudoeste 30 Sudoeste 0 -- -- 40
2020-05-21 15:00:00 27 16 Sudoeste 27 Sudoeste 0 -- -- 40
2020-05-21 14:00:00 27 13 Oeste 25 Sudoeste 0 -- -- 35
2020-05-21 13:00:00 27 9 Sudoeste 17 Este 0 -- -- 33
2020-05-21 12:00:00 25.3 4 Sudeste 10 Sudeste 0 -- -- 37
2020-05-21 11:00:00 22 3 Sur 6 Sudeste 0 -- -- 59
2020-05-21 10:00:00 17.4 5 Oeste 8 Oeste 0 -- -- 73
2020-05-21 09:00:00 12.3 4 Oeste 7 Oeste 0 -- -- 89
2020-05-21 08:00:00 9.1 4 Oeste 12 Sudoeste 0 -- -- 96
2020-05-21 07:00:00 8.1 8 Oeste 9 Oeste 0 -- -- 95
2020-05-21 06:00:00 9.2 4 Oeste 9 Noroeste 0 -- -- 95
2020-05-21 05:00:00 10 6 Oeste 8 Oeste 0 -- -- 94
2020-05-21 04:00:00 11.2 3 Oeste 8 Sudoeste 0 -- -- 92
2020-05-21 03:00:00 11.5 6 Sudoeste 12 Oeste 0 -- -- 91
2020-05-21 02:00:00 12.3 7 Sudoeste 13 Norte 0 -- -- 87
2020-05-21 01:00:00 11.6 3 Norte 9 Noroeste 0 -- -- 84
2020-05-21 00:00:00 15 3 Sudoeste 9 Noroeste 0 -- -- 73
2020-05-20 23:00:00 17 8 Oeste 9 Oeste 0 -- -- 67
2020-05-20 22:00:00 21.1 4 Sur 10 Oeste 0 -- -- 51
2020-05-20 21:00:00 24.7 6 Norte 10 Nordeste 0 -- -- 34
2020-05-20 20:00:00 27 6 Norte 19 Norte 0 -- -- 32
2020-05-20 19:00:00 27.8 5 Noroeste 15 Norte 0 -- -- 26
2020-05-20 18:00:00 27.5 7 Norte 18 Norte 0 -- -- 29
2020-05-20 17:00:00 27.2 6 Este 18 Norte 0 -- -- 30
2020-05-20 16:00:00 26.8 10 Nordeste 21 Nordeste 0 -- -- 33
2020-05-20 15:00:00 26 8 Nordeste 24 Nordeste 0 -- -- 38
2020-05-20 14:00:00 25.4 12 Nordeste 22 Nordeste 0 -- -- 42
2020-05-20 13:00:00 24.2 13 Nordeste 22 Nordeste 0 -- -- 43
2020-05-20 12:00:00 22.5 9 Nordeste 15 Este 0 -- -- 45
2020-05-20 11:00:00 19.5 12 Nordeste 17 Nordeste 0 -- -- 55
2020-05-20 10:00:00 16.7 3 Este 7 Este 0 -- -- 72
2020-05-20 09:00:00 10.2 0 Calma 5 Oeste 0 -- -- 91
2020-05-20 08:00:00 6.4 3 Oeste 10 Oeste 0 -- -- 93
2020-05-20 07:00:00 5 6 Oeste 7 Oeste 0 -- -- 95
2020-05-20 06:00:00 5.5 4 Noroeste 9 Oeste 0 -- -- 94
2020-05-20 05:00:00 6.3 4 Noroeste 8 Oeste 0 -- -- 93
2020-05-20 04:00:00 6.8 7 Oeste 10 Oeste 0 -- -- 92
2020-05-20 03:00:00 7.1 7 Sudoeste 8 Oeste 0 -- -- 91
2020-05-20 02:00:00 8.8 3 Noroeste 14 Oeste 0 -- -- 86
2020-05-20 01:00:00 9.6 7 Oeste 9 Oeste 0 -- -- 83
2020-05-20 00:00:00 11.6 6 Oeste 11 Oeste 0 -- -- 75
2020-05-19 23:00:00 15 0 Calma 9 Este 0 -- -- 61
2020-05-19 22:00:00 17.4 7 Este 15 Nordeste 0 -- -- 51
2020-05-19 21:00:00 21.8 9 Nordeste 22 Nordeste 0 -- -- 45
2020-05-19 20:00:00 24.1 13 Nordeste 22 Nordeste 0 -- -- 38
2020-05-19 19:00:00 24.7 14 Nordeste 23 Nordeste 0 -- -- 36
2020-05-19 18:00:00 24.8 13 Nordeste 29 Nordeste 0 -- -- 35
2020-05-19 17:00:00 24.6 16 Nordeste 30 Nordeste 0 -- -- 34
2020-05-19 16:00:00 23.9 18 Nordeste 30 Norte 0 -- -- 38
2020-05-19 15:00:00 23.3 19 Nordeste 30 Nordeste 0 -- -- 37
2020-05-19 14:00:00 22.5 20 Nordeste 28 Nordeste 0 -- -- 40
2020-05-19 13:00:00 21.9 13 Nordeste 21 Nordeste 0 -- -- 42
2020-05-19 12:00:00 20.1 11 Nordeste 19 Nordeste 0 -- -- 46
2020-05-19 11:00:00 17.3 11 Nordeste 20 Nordeste 0 -- -- 55
2020-05-19 10:00:00 14.7 14 Nordeste 19 Este 0 -- -- 61
2020-05-19 09:00:00 10.7 0 Calma 5 Oeste 0 -- -- 86
2020-05-19 08:00:00 5.3 5 Oeste 6 Oeste 0 -- -- 95
2020-05-19 07:00:00 4.2 4 Oeste 8 Sudoeste 0 -- -- 95
2020-05-19 06:00:00 4.4 4 Sudoeste 7 Sudoeste 0 -- -- 94
2020-05-19 05:00:00 5.5 3 Noroeste 6 Oeste 0 -- -- 93
2020-05-19 04:00:00 5.7 5 Oeste 7 Oeste 0 -- -- 92
2020-05-19 03:00:00 6.6 5 Norte 9 Oeste 0 -- -- 91
2020-05-19 02:00:00 8 3 Oeste 6 Noroeste 0 -- -- 86
2020-05-19 01:00:00 8.8 5 Oeste 7 Oeste 0 -- -- 83
2020-05-19 00:00:00 10.7 4 Noroeste 10 Oeste 0 -- -- 77
2020-05-18 23:00:00 13.1 11 Oeste 12 Oeste 0 -- -- 67
2020-05-18 22:00:00 17.2 6 Nordeste 15 Nordeste 0 -- -- 48
2020-05-18 21:00:00 20.5 9 Nordeste 22 Nordeste 0 -- -- 41
2020-05-18 20:00:00 22.4 13 Nordeste 19 Nordeste 0 -- -- 36
2020-05-18 19:00:00 23.1 12 Nordeste 20 Norte 0 -- -- 35
2020-05-18 18:00:00 23.3 12 Nordeste 21 Nordeste 0 -- -- 33
2020-05-18 17:00:00 23.1 10 Nordeste 23 Nordeste 0 -- -- 36
2020-05-18 16:00:00 22.6 12 Norte 23 Este 0 -- -- 40
2020-05-18 15:00:00 21.8 10 Norte 24 Nordeste 0 -- -- 36
2020-05-18 14:00:00 21.2 14 Nordeste 23 Nordeste 0 -- -- 39
2020-05-18 13:00:00 20.4 13 Nordeste 21 Nordeste 0 -- -- 42
2020-05-18 12:00:00 19 12 Nordeste 19 Nordeste 0 -- -- 45
2020-05-18 11:00:00 17 8 Nordeste 11 Nordeste 0 -- -- 51
2020-05-18 10:00:00 12.8 0 Calma 5 Norte 0 -- -- 77
2020-05-18 09:00:00 7.6 0 Calma 6 Oeste 0 -- -- 92
2020-05-18 08:00:00 3.2 4 Oeste 7 Oeste 0 -- -- 94
2020-05-18 07:00:00 2.5 4 Oeste 9 Oeste 0 -- -- 96
2020-05-18 06:00:00 2.7 4 Oeste 12 Oeste 0 -- -- 95
2020-05-18 05:00:00 2.9 5 Sudoeste 9 Sudoeste 0 -- -- 96
2020-05-18 04:00:00 2.9 7 Oeste 11 Oeste 0 -- -- 94
2020-05-18 03:00:00 3.5 8 Oeste 10 Noroeste 0 -- -- 92
2020-05-18 02:00:00 4.5 7 Oeste 9 Sudoeste 0 -- -- 90
2020-05-18 01:00:00 6.2 5 Oeste 9 Noroeste 0 -- -- 85
2020-05-18 00:00:00 8.2 3 Noroeste 10 Oeste 0 -- -- 79
2020-05-17 23:00:00 10.6 6 Oeste 9 Noroeste 0 -- -- 70
2020-05-17 22:00:00 13.8 5 Nordeste 12 Nordeste 0 -- -- 57
2020-05-17 21:00:00 17.1 9 Nordeste 20 Nordeste 0 -- -- 49
2020-05-17 20:00:00 18.8 13 Nordeste 23 Nordeste 0 -- -- 45
2020-05-17 19:00:00 19 15 Nordeste 28 Este 0 -- -- 44
2020-05-17 18:00:00 19.1 13 Nordeste 29 Nordeste 0 -- -- 48
2020-05-17 17:00:00 18.5 18 Norte 31 Norte 0 -- -- 50
2020-05-17 16:00:00 18.1 16 Nordeste 31 Nordeste 0 -- -- 50
2020-05-17 15:00:00 17.3 18 Nordeste 34 Nordeste 0 -- -- 53
2020-05-17 14:00:00 16.5 21 Nordeste 36 Norte 0 -- -- 57
2020-05-17 13:00:00 15.8 20 Nordeste 34 Nordeste 0 -- -- 55
2020-05-17 12:00:00 14.2 19 Nordeste 30 Nordeste 0 -- -- 63
2020-05-17 11:00:00 11.4 13 Nordeste 21 Nordeste 0 -- -- 75
2020-05-17 10:00:00 8.9 13 Nordeste 18 Nordeste 0 -- -- 83
2020-05-17 09:00:00 6.7 11 Nordeste 15 Nordeste 0 -- -- 89
2020-05-17 08:00:00 3.6 5 Norte 6 Norte 0 -- -- 97
2020-05-17 07:00:00 3.3 0 Calma 7 Nordeste 0 -- -- 93
2020-05-17 06:00:00 4.1 2 Noroeste 9 Noroeste 0 -- -- 94
2020-05-17 05:00:00 4.6 6 Norte 16 Nordeste 0 -- -- 94
2020-05-17 04:00:00 4.7 9 Nordeste 14 Nordeste 0 -- -- 91
2020-05-17 03:00:00 6.7 12 Nordeste 17 Nordeste 0 -- -- 88
2020-05-17 02:00:00 7.5 13 Nordeste 26 Nordeste 0 -- -- 87
2020-05-17 01:00:00 8.1 15 Nordeste 19 Nordeste 0 -- -- 89
2020-05-17 00:00:00 9.4 10 Nordeste 24 Nordeste 0 -- -- 85
2020-05-16 23:00:00 10.6 15 Nordeste 23 Nordeste 0 -- -- 80
2020-05-16 22:00:00 12.4 18 Nordeste 40 Nordeste 0 -- -- 72
2020-05-16 21:00:00 14.8 20 Nordeste 32 Norte 0 -- -- 61
2020-05-16 20:00:00 16.7 22 Nordeste 35 Norte 0 -- -- 57
2020-05-16 19:00:00 17.2 20 Norte 41 Nordeste 0 -- -- 58
2020-05-16 18:00:00 17.1 19 Nordeste 30 Nordeste 0 -- -- 57
2020-05-16 17:00:00 18.2 12 Nordeste 29 Nordeste 0 -- -- 58
2020-05-16 16:00:00 16.3 17 Nordeste 27 Nordeste 0 -- -- 62
2020-05-16 15:00:00 16.1 14 Nordeste 27 Nordeste 0 -- -- 68
2020-05-16 14:00:00 14.1 17 Nordeste 29 Nordeste 0 -- -- 75
2020-05-16 13:00:00 13.2 17 Nordeste 26 Norte 0 -- -- 76
2020-05-16 12:00:00 11.8 17 Nordeste 24 Nordeste 0 -- -- 79
2020-05-16 11:00:00 9.6 15 Nordeste 25 Nordeste 0 -- -- 84
2020-05-16 10:00:00 8.3 13 Nordeste 26 Nordeste 0 -- -- 87
2020-05-16 09:00:00 7.1 17 Nordeste 28 Nordeste 0 -- -- 89
2020-05-16 08:00:00 6.4 19 Nordeste 29 Nordeste 0 -- -- 91
2020-05-16 07:00:00 6.7 19 Nordeste 28 Nordeste 0 -- -- 90
2020-05-16 06:00:00 7.4 17 Nordeste 27 Nordeste 0 -- -- 90
2020-05-16 05:00:00 7.7 20 Nordeste 30 Nordeste 0 -- -- 90
2020-05-16 04:00:00 7.9 15 Nordeste 30 Nordeste 0 -- -- 89
2020-05-16 03:00:00 8.3 22 Nordeste 32 Nordeste 0 -- -- 87
2020-05-16 02:00:00 8.5 19 Nordeste 33 Nordeste 0 -- -- 88
2020-05-16 01:00:00 9.1 16 Nordeste 33 Nordeste 0 -- -- 89
2020-05-16 00:00:00 9.4 19 Nordeste 38 Nordeste 0 -- -- 89
2020-05-15 23:00:00 10.4 27 Nordeste 44 Nordeste 0 -- -- 83
2020-05-15 22:00:00 11.5 21 Nordeste 37 Nordeste 0 -- -- 79
2020-05-15 21:00:00 11.9 10 Nordeste 29 Este 0.2 -- -- 86
2020-05-15 20:00:00 14 26 Nordeste 39 Nordeste 0 -- -- 68
2020-05-15 19:00:00 15 26 Nordeste 36 Nordeste 0 -- -- 65
2020-05-15 18:00:00 14.6 22 Nordeste 36 Este 0 -- -- 63
2020-05-15 17:00:00 15.6 23 Nordeste 34 Nordeste 0 -- -- 63
2020-05-15 16:00:00 13.9 19 Nordeste 30 Norte 0 -- -- 66
2020-05-15 15:00:00 13 20 Nordeste -- -- -- -- -- 72
2020-05-15 14:00:00 12.9 21 Nordeste 35 Nordeste 0 -- -- 74
2020-05-15 13:00:00 12.6 20 Nordeste 29 Norte 0 -- -- 76
2020-05-15 12:00:00 11.9 20 Nordeste 29 Nordeste 0 -- -- 79
2020-05-15 11:00:00 10.2 22 Nordeste 28 Nordeste 0 -- -- 88
2020-05-15 10:00:00 9.3 18 Nordeste 27 Nordeste 0 -- -- 93
2020-05-15 09:00:00 8.8 17 Nordeste 22 Nordeste 0 -- -- 96
2020-05-15 08:00:00 8.4 13 Nordeste 18 Nordeste 0 -- -- 97
2020-05-15 07:00:00 7.7 -- -- -- -- 0 -- -- --
2020-05-15 06:00:00 7.8 6 Norte 12 Norte 0 -- -- 95
2020-05-15 05:00:00 8.6 3 Norte 7 Norte 0 -- -- 96
2020-05-15 04:00:00 8.8 3 Sudoeste 6 Noroeste 0 -- -- 95
2020-05-15 03:00:00 8.8 3 Norte 7 Oeste 0 -- -- 94
2020-05-15 02:00:00 8.9 4 Oeste 8 Oeste 0 -- -- 93
2020-05-15 01:00:00 9.3 5 Norte 6 Norte 0 -- -- 92
2020-05-15 00:00:00 9.7 2 Norte 9 Nordeste 0 -- -- 90
2020-05-14 23:00:00 9.6 7 Nordeste 14 Nordeste 0 -- -- 90
2020-05-14 22:00:00 10.2 11 Nordeste 24 Nordeste 0 -- -- 86
2020-05-14 21:00:00 11.4 13 Nordeste 22 Nordeste 0 -- -- 82
2020-05-14 20:00:00 12.2 12 Nordeste 19 Este 0.2 -- -- 78
2020-05-14 19:00:00 13.9 6 Nordeste 15 Nordeste 0 -- -- 63
2020-05-14 18:00:00 15.2 8 Norte 14 Norte 0 -- -- 58
2020-05-14 17:00:00 15.7 8 Norte 18 Oeste 0 -- -- 59
2020-05-14 16:00:00 14.9 4 Sur 13 Oeste 0 -- -- 60
2020-05-14 15:00:00 13.4 5 Oeste 12 Norte 0 -- -- 66
2020-05-14 14:00:00 -- -- -- -- -- -- -- -- --
2020-05-14 13:00:00 -- -- -- -- -- -- -- -- --
2020-05-14 12:00:00 -- -- -- -- -- -- -- -- --
2020-05-14 11:00:00 -- -- -- -- -- -- -- -- --
2020-05-14 10:00:00 -- -- -- -- -- -- -- -- --
2020-05-14 09:00:00 -- -- -- -- -- -- -- -- --
2020-05-14 08:00:00 -- -- -- -- -- -- -- -- --
2020-05-14 07:00:00 -- -- -- -- -- -- -- -- --
2020-05-14 06:00:00 -- -- -- -- -- -- -- -- --
2020-05-14 05:00:00 -- -- -- -- -- -- -- -- --
2020-05-14 04:00:00 -- -- -- -- -- -- -- -- --
2020-05-14 03:00:00 -- -- -- -- -- -- -- -- --
2020-05-14 02:00:00 -- -- -- -- -- -- -- -- --
2020-05-14 01:00:00 -- -- -- -- -- -- -- -- --
2020-05-14 00:00:00 -- -- -- -- -- -- -- -- --
2020-05-13 23:00:00 -- -- -- -- -- -- -- -- --
2020-05-13 22:00:00 -- -- -- -- -- -- -- -- --
2020-05-13 21:00:00 -- -- -- -- -- -- -- -- --
2020-05-13 20:00:00 -- -- -- -- -- -- -- -- --
2020-05-13 19:00:00 -- -- -- -- -- -- -- -- --
2020-05-13 18:00:00 -- -- -- -- -- -- -- -- --
2020-05-13 17:00:00 -- -- -- -- -- -- -- -- --
2020-05-13 16:00:00 -- -- -- -- -- -- -- -- --
2020-05-13 15:00:00 -- -- -- -- -- -- -- -- --
2020-05-13 14:00:00 -- -- -- -- -- -- -- -- --
2020-05-13 13:00:00 -- -- -- -- -- -- -- -- --
2020-05-13 12:00:00 -- -- -- -- -- -- -- -- --
2020-05-13 11:00:00 -- -- -- -- -- -- -- -- --
2020-05-13 10:00:00 -- -- -- -- -- -- -- -- --
2020-05-13 09:00:00 -- -- -- -- -- -- -- -- --
2020-05-13 08:00:00 -- -- -- -- -- -- -- -- --
2020-05-13 07:00:00 -- -- -- -- -- -- -- -- --
2020-05-13 06:00:00 -- -- -- -- -- -- -- -- --
2020-05-13 05:00:00 -- -- -- -- -- -- -- -- --
2020-05-13 04:00:00 -- -- -- -- -- -- -- -- --
2020-05-13 03:00:00 -- -- -- -- -- -- -- -- --
2020-05-13 02:00:00 -- -- -- -- -- -- -- -- --
2020-05-13 01:00:00 -- -- -- -- -- -- -- -- --
2020-05-13 00:00:00 -- -- -- -- -- -- -- -- --
2020-05-12 23:00:00 -- -- -- -- -- -- -- -- --
2020-05-12 22:00:00 -- -- -- -- -- -- -- -- --
2020-05-12 21:00:00 -- -- -- -- -- -- -- -- --
2020-05-12 20:00:00 -- -- -- -- -- -- -- -- --
2020-05-12 19:00:00 -- -- -- -- -- -- -- -- --
2020-05-12 18:00:00 -- -- -- -- -- -- -- -- --
2020-05-12 17:00:00 -- -- -- -- -- -- -- -- --
2020-05-12 16:00:00 -- -- -- -- -- -- -- -- --
2020-05-12 15:00:00 -- -- -- -- -- -- -- -- --
2020-05-12 14:00:00 11.4 25 Sur 34 Sur 0 -- -- 83
2020-05-12 13:00:00 15.5 5 Nordeste 9 Este 0 -- -- 65
2020-05-12 12:00:00 14.2 4 Norte 9 Norte 0 -- -- 77
2020-05-12 11:00:00 11.7 0 Calma 6 Sudeste 0 -- -- 95
2020-05-12 10:00:00 9.4 0 Calma 6 Sur 0 -- -- 99
2020-05-12 09:00:00 8.9 5 Norte 9 Norte 0 -- -- 99
2020-05-12 08:00:00 8 3 Norte 6 Oeste 0 -- -- 98
2020-05-12 07:00:00 7.1 3 Oeste 10 Norte 0 -- -- 98
2020-05-12 06:00:00 6.9 6 Norte 11 Sur 0 -- -- 95
2020-05-12 05:00:00 8.6 3 Sur 8 Este 0 -- -- 97
2020-05-12 04:00:00 9 4 Sudoeste 14 Sudoeste 0 -- -- 97
2020-05-12 03:00:00 8.8 5 Sur 13 Oeste 0 -- -- 94
2020-05-12 02:00:00 9.8 8 Oeste 17 Oeste 0 -- -- 93
2020-05-12 01:00:00 10.8 8 Sudoeste 25 Sudoeste 0 -- -- 93
2020-05-12 00:00:00 10.7 13 Sudoeste 28 Sudoeste 0 -- -- 93
2020-05-11 23:00:00 11 20 Sudoeste 33 Sudoeste 0.2 -- -- 94
2020-05-11 22:00:00 11 19 Sudoeste 29 Sudoeste 0 -- -- 89
2020-05-11 21:00:00 12 13 Sudoeste 34 Sudoeste 0 -- -- 90
2020-05-11 20:00:00 14.7 23 Sudoeste 40 Sudoeste 0 -- -- 74
2020-05-11 19:00:00 15.4 23 Sudoeste 45 Sudoeste 0 -- -- 73
2020-05-11 18:00:00 15.3 29 Sudoeste 47 Sudoeste 0 -- -- 72
2020-05-11 17:00:00 16.1 23 Sudoeste 39 Sudoeste 0 -- -- 66
2020-05-11 16:00:00 15.1 26 Sudoeste 44 Sudoeste 0.2 -- -- 74
2020-05-11 15:00:00 12.6 25 Sudoeste 43 Sudoeste 0 -- -- 83
2020-05-11 14:00:00 14.1 22 Sudoeste 40 Sudoeste 0 -- -- 74
2020-05-11 13:00:00 14.2 22 Sudoeste 35 Sudoeste 0 -- -- 69
2020-05-11 12:00:00 14.4 18 Sudoeste 38 Sudoeste 0 -- -- 74
2020-05-11 11:00:00 13.2 26 Sudoeste 39 Sudoeste 0.2 -- -- 77
2020-05-11 10:00:00 11.4 13 Sur 26 Sudoeste 0 -- -- 84
2020-05-11 09:00:00 9.2 9 Sur 19 Sudoeste 0.4 -- -- 93
2020-05-11 08:00:00 9.1 10 Sur 18 Sudoeste 0.2 -- -- 94
2020-05-11 07:00:00 9 14 Sudoeste 24 Sudoeste 0 -- -- 94
2020-05-11 06:00:00 8.9 13 Sudoeste 24 Sudoeste 0 -- -- 95
2020-05-11 05:00:00 8.9 13 Sudoeste 26 Oeste 0 -- -- 94
2020-05-11 04:00:00 8.3 12 Sudoeste 21 Sudoeste 0 -- -- 96
2020-05-11 03:00:00 8.2 12 Sudoeste 22 Sudoeste 0 -- -- 95
2020-05-11 02:00:00 8.6 6 Sudoeste 15 Sudoeste 0 -- -- 93
2020-05-11 01:00:00 9.3 10 Sudoeste 18 Sudoeste 0 -- -- 95
2020-05-11 00:00:00 9 8 Sudoeste 14 Sudoeste 0 -- -- 93
2020-05-10 23:00:00 9.4 8 Sudoeste 18 Sudoeste 0 -- -- 90
2020-05-10 22:00:00 10.4 10 Sudoeste 26 Sudoeste 0.4 -- -- 91
2020-05-10 21:00:00 11.5 20 Sudoeste 33 Sudoeste 0 -- -- 80
2020-05-10 20:00:00 12.2 22 Sudoeste 33 Sudoeste 0 -- -- 77
2020-05-10 19:00:00 14.5 23 Sudoeste 38 Sudoeste 0 -- -- 69
2020-05-10 18:00:00 14.4 24 Sudoeste 36 Sur 0 -- -- 68
2020-05-10 17:00:00 12.8 20 Sudoeste 36 Sudoeste 0 -- -- 73
2020-05-10 16:00:00 15.1 18 Sudoeste 32 Sudoeste 0 -- -- 69
2020-05-10 15:00:00 15 15 Sudoeste 30 Oeste 0 -- -- 61
2020-05-10 14:00:00 13.7 15 Noroeste 23 Noroeste 0 -- -- 65
2020-05-10 13:00:00 12.4 13 Oeste 22 Sudoeste 0 -- -- 65
2020-05-10 12:00:00 12.4 13 Sudoeste 21 Sudoeste 0 -- -- 68
2020-05-10 11:00:00 11.7 12 Sudoeste 23 Sudoeste 0 -- -- 71
2020-05-10 10:00:00 10.1 13 Sudoeste 24 Sudoeste 0 -- -- 80
2020-05-10 09:00:00 8.5 13 Sudoeste 21 Sudoeste 0 -- -- 90
2020-05-10 08:00:00 7 3 Oeste 8 Oeste 0 -- -- 95
2020-05-10 07:00:00 6.4 4 Noroeste 19 Sudoeste 0 -- -- 95
2020-05-10 06:00:00 7.1 8 Sudoeste 17 Sudoeste 0 -- -- 96
2020-05-10 05:00:00 7.5 9 Sudoeste 23 Sudoeste 0 -- -- 94
2020-05-10 04:00:00 7.8 12 Sudoeste 21 Sudoeste 0 -- -- 95
2020-05-10 03:00:00 8.6 11 Sudoeste 16 Sudoeste 0 -- -- 94
2020-05-10 02:00:00 9 9 Sudoeste 24 Sudoeste 0 -- -- 91
2020-05-10 01:00:00 9.5 13 Sudoeste 29 Sur 0 -- -- 93
2020-05-10 00:00:00 9.7 11 Sudoeste 27 Sudoeste 0.4 -- -- 94
2020-05-09 23:00:00 10.1 21 Sudoeste 38 Sudoeste 0.2 -- -- 90
2020-05-09 22:00:00 10.7 21 Sudoeste 32 Sudoeste 0 -- -- 83
2020-05-09 21:00:00 12 14 Sudoeste 23 Sudoeste 0 -- -- 74
2020-05-09 20:00:00 12.6 20 Sudoeste 49 Sudoeste 0 -- -- 73
2020-05-09 19:00:00 14.4 27 Sudoeste 41 Sudoeste 0 -- -- 67
2020-05-09 18:00:00 15.9 21 Sudoeste 37 Sudoeste 0 -- -- 63
2020-05-09 17:00:00 17.9 22 Sudoeste 36 Sur 0 -- -- 60
2020-05-09 16:00:00 16.1 19 Sudoeste 36 Sudoeste 0 -- -- 68
2020-05-09 15:00:00 14.8 18 Sudoeste 38 Sudoeste 0 -- -- 73
2020-05-09 14:00:00 14.9 19 Sudoeste 50 Sur 0 -- -- 72
2020-05-09 13:00:00 15.2 21 Sudoeste 34 Sudoeste 0 -- -- 72
2020-05-09 12:00:00 13.8 19 Sudoeste 39 Sudoeste 0 -- -- 76
2020-05-09 11:00:00 13.1 22 Sudoeste 37 Sudoeste 0 -- -- 80
2020-05-09 10:00:00 13.3 18 Sudoeste 38 Sudoeste 0 -- -- 82
2020-05-09 09:00:00 12 20 Sudoeste 41 Sudoeste 0 -- -- 89
2020-05-09 08:00:00 11.5 19 Sudoeste 35 Sudoeste 0 -- -- 91
2020-05-09 07:00:00 11.6 24 Sudoeste 40 Sudoeste 0 -- -- 92
2020-05-09 06:00:00 11.3 9 Oeste 17 Sudoeste 0 -- -- 92
2020-05-09 05:00:00 10.5 6 Noroeste 12 Nordeste 0 -- -- 93
2020-05-09 04:00:00 10.1 4 Norte 10 Sudoeste 0 -- -- 90
2020-05-09 03:00:00 12.2 0 Calma 9 Sudeste 0 -- -- 85
2020-05-09 02:00:00 11.8 5 Noroeste 18 Sur 0 -- -- 86
2020-05-09 01:00:00 13 7 Sudoeste 17 Sudoeste 0 -- -- 83
2020-05-09 00:00:00 13.5 9 Sudoeste 13 Sudoeste 0 -- -- 82
2020-05-08 23:00:00 14.4 7 Sur 9 Sudoeste 0 -- -- 78
2020-05-08 22:00:00 16.4 0 Calma 16 Sudoeste 0 -- -- 70
2020-05-08 21:00:00 19.1 14 Sudoeste 40 Sudoeste 0 -- -- 60
2020-05-08 20:00:00 20.8 23 Sudoeste 41 Sudoeste 0 -- -- 55
2020-05-08 19:00:00 21.6 22 Sudoeste 39 Sudoeste 0 -- -- 53
2020-05-08 18:00:00 22.1 23 Sudoeste 40 Oeste 0 -- -- 53
2020-05-08 17:00:00 22 23 Sudoeste 39 Sudoeste 0 -- -- 53
2020-05-08 16:00:00 22.2 20 Sudoeste 36 Sudoeste 0 -- -- 58
2020-05-08 15:00:00 22.5 12 Sudoeste 21 Sudoeste 0 -- -- 58
2020-05-08 14:00:00 22.1 9 Sur 18 Sudoeste 0 -- -- 62
2020-05-08 13:00:00 21.7 6 Sur 12 Este 0 -- -- 59
2020-05-08 12:00:00 20 4 Noroeste 12 Sudeste 0 -- -- 67
2020-05-08 11:00:00 18.9 3 Sudoeste 12 Oeste 0 -- -- 66
2020-05-08 10:00:00 16.1 4 Sur 9 Sur 0 -- -- 78
2020-05-08 09:00:00 14.2 4 Sudoeste 18 Sudoeste 0 -- -- 86
2020-05-08 08:00:00 13.6 14 Sudoeste 19 Sudoeste 0 -- -- 89
2020-05-08 07:00:00 12.4 7 Sur 10 Sudoeste 0 -- -- 89
2020-05-08 06:00:00 11.9 9 Sudoeste 15 Oeste 0 -- -- 92
2020-05-08 05:00:00 12.7 8 Oeste 13 Sudoeste 0 -- -- 90
2020-05-08 04:00:00 13.2 8 Sudoeste 15 Oeste 0 -- -- 88
2020-05-08 03:00:00 12.8 8 Sudoeste 13 Oeste 0 -- -- 87
2020-05-08 02:00:00 14.2 6 Noroeste 14 Oeste 0 -- -- 81
2020-05-08 01:00:00 14.6 5 Norte 8 Este 0 -- -- 83
2020-05-08 00:00:00 16.7 4 Sur 15 Sudeste 0 -- -- 72
2020-05-07 23:00:00 16.4 5 Este 9 Oeste 0 -- -- 79
2020-05-07 22:00:00 17.9 5 Oeste 10 Sudoeste 0 -- -- 72
2020-05-07 21:00:00 20 6 Sudoeste 26 Sudoeste 0 -- -- 65
2020-05-07 20:00:00 23.7 14 Sudoeste 27 Sudoeste 0 -- -- 52
2020-05-07 19:00:00 24.1 8 Sudoeste 13 Sudoeste 0 -- -- 50
2020-05-07 18:00:00 23.2 0 Calma 28 Oeste 0 -- -- 54
2020-05-07 17:00:00 23.5 23 Sudoeste 37 Sudoeste 0 -- -- 54
2020-05-07 16:00:00 25.5 12 Sudoeste 25 Sudoeste 0 -- -- 46
2020-05-07 15:00:00 25.1 6 Noroeste 17 Noroeste 0 -- -- 46
2020-05-07 14:00:00 23.6 10 Norte 21 Nordeste 0 -- -- 54
2020-05-07 13:00:00 21.4 12 Nordeste 18 Este 0 -- -- 58
2020-05-07 12:00:00 18 8 Nordeste 12 Norte 0 -- -- 63
2020-05-07 11:00:00 14.5 3 Sur 6 Sur 0 -- -- 82
2020-05-07 10:00:00 11.4 3 Sudoeste 6 Oeste 0 -- -- 89
2020-05-07 09:00:00 8.7 3 Oeste 8 Noroeste 0 -- -- 95
2020-05-07 08:00:00 7.6 0 Calma 6 Oeste 0 -- -- 94
2020-05-07 07:00:00 7.6 3 Noroeste 8 Norte 0 -- -- 92
2020-05-07 06:00:00 7.7 6 Oeste 8 Oeste 0 -- -- 94
2020-05-07 05:00:00 8.5 4 Oeste 7 Nordeste 0 -- -- 92
2020-05-07 04:00:00 8.7 6 Nordeste 9 Nordeste 0 -- -- 91
2020-05-07 03:00:00 9.6 0 Calma 5 Noroeste 0 -- -- 88
2020-05-07 02:00:00 9.5 0 Calma 7 Norte 0 -- -- 89
2020-05-07 01:00:00 10.5 0 Calma 6 Norte 0 -- -- 84
2020-05-07 00:00:00 11.1 5 Noroeste 10 Oeste 0 -- -- 82
2020-05-06 23:00:00 14 0 Calma 5 Oeste 0 -- -- 69
2020-05-06 22:00:00 15.8 4 Sudoeste 8 Norte 0 -- -- 64
2020-05-06 21:00:00 17.9 6 Norte 11 Norte 0 -- -- 54
2020-05-06 20:00:00 21.1 7 Norte 12 Nordeste 0 -- -- 45
2020-05-06 19:00:00 22.3 4 Nordeste 14 Sudoeste 0 -- -- 49
2020-05-06 18:00:00 21.9 4 Norte 18 Noroeste 0 -- -- 49
2020-05-06 17:00:00 21.2 7 Sudeste 14 Oeste 0 -- -- 51
2020-05-06 16:00:00 20.5 5 Sudoeste 16 Oeste 0 -- -- 55
2020-05-06 15:00:00 19.4 6 Nordeste 15 Nordeste 0 -- -- 57
2020-05-06 14:00:00 18.8 6 Nordeste 17 Este 0 -- -- 61
2020-05-06 13:00:00 17.3 11 Nordeste 22 Este 0 -- -- 66
2020-05-06 12:00:00 16.6 12 Nordeste 17 Nordeste 0 -- -- 69
2020-05-06 11:00:00 14.8 6 Nordeste 12 Nordeste 0 -- -- 75
2020-05-06 10:00:00 11.2 2 Oeste 5 Oeste 0 -- -- 84
2020-05-06 09:00:00 7.8 4 Oeste 10 Noroeste 0 -- -- 93
2020-05-06 08:00:00 5.3 7 Noroeste 12 Oeste 0 -- -- 96
2020-05-06 07:00:00 4.8 5 Noroeste 11 Oeste 0 -- -- 95
2020-05-06 06:00:00 5.7 5 Oeste 8 Oeste 0 -- -- 95
2020-05-06 05:00:00 5.7 3 Sudoeste 12 Oeste 0 -- -- 94
2020-05-06 04:00:00 5.7 9 Oeste 11 Oeste 0 -- -- 94
2020-05-06 03:00:00 6.5 8 Noroeste 10 Oeste 0 -- -- 94
2020-05-06 02:00:00 7.6 5 Oeste 8 Sudoeste 0 -- -- 88
2020-05-06 01:00:00 8.9 5 Sudoeste 6 Sur 0 -- -- 85
2020-05-06 00:00:00 10 2 Sudeste 9 Sudoeste 0 -- -- 81
2020-05-05 23:00:00 11.1 4 Sudoeste 8 Sudoeste 0 -- -- 77
2020-05-05 22:00:00 12.6 6 Sudoeste 16 Sudoeste 0 -- -- 72
2020-05-05 21:00:00 15.3 12 Sudoeste 30 Sudoeste 0 -- -- 61
2020-05-05 20:00:00 17.8 18 Sudoeste 30 Oeste 0 -- -- 51
2020-05-05 19:00:00 18.8 19 Sudoeste 35 Sudoeste 0 -- -- 47
2020-05-05 18:00:00 19.2 20 Sudoeste 33 Sudoeste 0 -- -- 36
2020-05-05 17:00:00 19.2 21 Sudoeste 35 Sudoeste 0 -- -- 35
2020-05-05 16:00:00 18.9 21 Sudoeste 36 Sudoeste 0 -- -- 41
2020-05-05 15:00:00 18.7 13 Sudoeste 25 Sudoeste 0 -- -- 50
2020-05-05 14:00:00 16.8 13 Sudoeste 25 Sudoeste 0 -- -- 51
2020-05-05 13:00:00 15.4 12 Sudoeste 26 Sudoeste 0 -- -- 54
2020-05-05 12:00:00 14.7 14 Sudoeste 26 Sudoeste 0 -- -- 65
2020-05-05 11:00:00 13.3 14 Sudoeste 25 Sudoeste 0 -- -- 77
2020-05-05 10:00:00 11 13 Sudoeste 19 Sudoeste 0 -- -- 92
2020-05-05 09:00:00 9.4 10 Sudoeste 15 Sudoeste 0 -- -- 97
2020-05-05 08:00:00 7.9 7 Sudoeste 15 Oeste 0 -- -- 97
2020-05-05 07:00:00 7.7 6 Oeste 10 Sudoeste 0 -- -- 96
2020-05-05 06:00:00 8.8 4 Sudoeste 8 Sudoeste 0 -- -- 95
2020-05-05 05:00:00 9.2 4 Sudoeste 7 Sudoeste 0 -- -- 94
2020-05-05 04:00:00 9.4 7 Oeste 14 Sudoeste 0 -- -- 93
2020-05-05 03:00:00 10.3 9 Sudoeste 12 Sudoeste 0 -- -- 90
2020-05-05 02:00:00 11 2 Oeste 21 Sudoeste 0 -- -- 86
2020-05-05 01:00:00 11.7 14 Sudoeste 33 Sudoeste 0 -- -- 83
2020-05-05 00:00:00 12.1 22 Sudoeste 32 Sur 0 -- -- 77
2020-05-04 23:00:00 13.4 22 Sur 29 Sur 0 -- -- 76
2020-05-04 22:00:00 13.9 14 Sudoeste 30 Sudoeste 0 -- -- 79
2020-05-04 21:00:00 16.1 21 Sudoeste 35 Sudoeste 0 -- -- 72
2020-05-04 20:00:00 17.2 21 Sudoeste 62 Sudoeste 0 -- -- 68
2020-05-04 19:00:00 18.9 33 Sudoeste 62 Sudoeste 0 -- -- 58
2020-05-04 18:00:00 19.7 42 Sudoeste 76 Sudoeste 0 -- -- 59
2020-05-04 17:00:00 21.5 41 Sudoeste 60 Sudoeste 0 -- -- 59
2020-05-04 16:00:00 22 29 Sudoeste 55 Sudoeste 0 -- -- 60
2020-05-04 15:00:00 23.1 33 Sudoeste 59 Sudoeste 0 -- -- 46
2020-05-04 14:00:00 24.5 30 Sudoeste 47 Sudoeste 0 -- -- 44
2020-05-04 13:00:00 24 21 Sudoeste 35 Sudoeste 0 -- -- 48
2020-05-04 12:00:00 22.4 11 Sudoeste 19 Sudoeste 0 -- -- 53
2020-05-04 11:00:00 19.7 6 Oeste 13 Sudeste 0 -- -- 76
2020-05-04 10:00:00 18.1 6 Norte 10 Norte 0 -- -- 78
2020-05-04 09:00:00 15.1 8 Este 14 Este 0 -- -- 74
2020-05-04 08:00:00 12.1 7 Nordeste 13 Este 0 -- -- 85
2020-05-04 07:00:00 13 12 Sudeste 19 Sudeste 0 -- -- 80
2020-05-04 06:00:00 9.5 9 Este 16 Este 0 -- -- 94
2020-05-04 05:00:00 10.1 5 Nordeste 12 Sudeste 0 -- -- 92
2020-05-04 04:00:00 10.8 6 Noroeste 11 Noroeste 0 -- -- 89
2020-05-04 03:00:00 10.9 6 Oeste 8 Oeste 0 -- -- 92
2020-05-04 02:00:00 11.9 5 Noroeste 8 Oeste 0 -- -- 89
2020-05-04 01:00:00 12.8 5 Noroeste 8 Oeste 0 -- -- 85
2020-05-04 00:00:00 14.2 2 Noroeste 10 Oeste 0 -- -- 81
2020-05-03 23:00:00 16.7 5 Este 9 Sudeste 0 -- -- 71
2020-05-03 22:00:00 19.2 3 Nordeste 9 Sudoeste 0 -- -- 62
2020-05-03 21:00:00 21.7 3 Oeste 14 Oeste 0 -- -- 51
2020-05-03 20:00:00 24.3 9 Oeste 18 Oeste 0 -- -- 50
2020-05-03 19:00:00 25.3 14 Sudoeste 24 Sudoeste 0 -- -- 46
2020-05-03 18:00:00 25.5 13 Sudoeste 24 Sudoeste 0 -- -- 42
2020-05-03 17:00:00 25.4 13 Sudoeste 25 Sudoeste 0 -- -- 45
2020-05-03 16:00:00 24.9 12 Sudoeste 22 Oeste 0 -- -- 45
2020-05-03 15:00:00 24.4 8 Oeste 22 Sudoeste 0 -- -- 48
2020-05-03 14:00:00 23.4 13 Sudoeste 33 Sudoeste 0 -- -- 49
2020-05-03 13:00:00 22.7 17 Sudoeste 28 Sudoeste 0 -- -- 49
2020-05-03 12:00:00 21.7 16 Sudoeste 26 Sudoeste 0 -- -- 52
2020-05-03 11:00:00 18.8 2 Sur 8 Sur 0 -- -- 70
2020-05-03 10:00:00 13 4 Oeste 6 Sudoeste 0 -- -- 79
2020-05-03 09:00:00 8.1 4 Oeste 6 Noroeste 0 -- -- 93
2020-05-03 08:00:00 5.1 4 Noroeste 6 Noroeste 0 -- -- 97
2020-05-03 07:00:00 5.2 5 Noroeste 10 Noroeste 0 -- -- 96
2020-05-03 06:00:00 5.9 5 Noroeste 8 Noroeste 0 -- -- 96
2020-05-03 05:00:00 6.5 4 Norte 7 Noroeste 0 -- -- 95
2020-05-03 04:00:00 7.7 3 Noroeste 8 Oeste 0 -- -- 94
2020-05-03 03:00:00 9 6 Oeste 8 Oeste 0 -- -- 93
2020-05-03 02:00:00 10.3 5 Oeste 6 Oeste 0 -- -- 89
2020-05-03 01:00:00 11.9 5 Sudeste 11 Este 0 -- -- 85
2020-05-03 00:00:00 13.2 0 Calma 11 Sudoeste 0 -- -- 82